Sonic Adventure (DX): Overall Rankings

Records: Times | Rings | Scores | Races | Bosses | Freestyle
Leaders: Times | Rings | Scores | Races | Bosses | Freestyle | Overall
Rank Order Asc Player Percent Points Date
1 Sonicspeedruner 98.4% 247 01-31-15
2 Gamepro011 97.5% 391 01-31-15
3 DarkPolarNight 96.5% 551 01-31-15
4 Jawzun 94.0% 953 01-31-15
5 Dashjump 92.1% 1267 01-31-15
6 DarkspinesSonic 91.2% 1409 01-31-15
7 Avento128bits 90.7% 1488 01-31-15
8 ike6252 90.5% 1509 01-31-15
9 F-Man 86.4% 2172 01-31-15
10 HyperSonic7701 85.7% 2293 01-31-15
11 yoshifan 84.2% 2533 01-31-15
12 Coolfansonic 84.1% 2540 01-31-15
13 frankoredstrato 83.7% 2606 01-31-15
14 francisco 82.6% 2784 01-31-15
15 Marth 82.3% 2834 01-31-15
16 InferSaime 81.2% 3006 01-31-15
17 PfoSonic 80.8% 3074 01-31-15
18 Paragod 80.2% 3165 01-31-15
19 THC98 78.8% 3400 01-31-15
20 Stefan 77.2% 3654 01-31-15
21 RPGnutter 75.0% 4002 01-31-15
22 bertin 74.7% 4051 01-31-15
23 sonicam 72.6% 4392 01-31-15
24 Combo 66.7% 5331 01-31-15
25 SkyLights 65.5% 5530 01-31-15
26 Diamond 63.6% 5833 01-31-15
27 SonicDash1999 62.6% 5993 01-31-15
28 Auriman1 61.3% 6200 01-31-15
29 GerbilSoft 61.3% 6208 01-31-15
30 OmegaDJ 61.2% 6211 01-31-15
31 magnum12 60.3% 6361 01-31-15
32 Dawid8404 60.2% 6386 01-31-15
33 Thorn 58.3% 6685 01-31-15
34 P1 Pause 58.0% 6730 01-31-15
35 mike89 56.6% 6954 01-31-15
36 Dave Cramer 54.7% 7267 01-31-15
36 Groudon199 54.7% 7267 01-31-15
38 chainchumper 54.2% 7344 01-31-15
39 Shadow Jacky 53.6% 7431 01-31-15
40 Parax 53.5% 7458 01-31-15
41 Psymar 48.3% 8282 01-31-15
42 Chao_Fan 46.7% 8547 01-31-15
43 Arch 46.3% 8612 01-31-15
44 mauserman 45.8% 8687 01-31-15
45 Quartz 45.4% 8749 01-31-15
46 teamblackarms 44.4% 8910 01-31-15
47 Psyknux 44.0% 8977 01-31-15
48 James_Bertolli 43.5% 9054 01-31-15
49 NintenDan 43.1% 9130 01-31-15
50 Webber3000 42.4% 9228 01-31-15
51 TheRealShadnic 42.4% 9238 01-31-15
52 Turbos 42.3% 9249 01-31-15
53 Fr3nZy 42.3% 9254 01-31-15
54 Ring Rush 42.3% 9257 01-31-15
55 Cream147 42.1% 9285 01-31-15
56 videogamemaster777 42.0% 9293 01-31-15
57 Siavash Tazari 41.7% 9341 01-31-15
58 buddychaos0415 41.3% 9417 01-31-15
59 SadisticMystic 40.5% 9541 01-31-15
60 eggFL 39.8% 9659 01-31-15
61 Redd 39.0% 9775 01-31-15
62 SB737 38.1% 9926 01-31-15
63 drminus 37.9% 9963 01-31-15
64 supersonicfan 36.9% 10116 01-31-15
65 FuzZerd 35.8% 10293 01-31-15
66 elecmouse101 35.1% 10406 01-31-15
67 supersonic465 35.0% 10421 01-31-15
68 Austinf 33.5% 10657 01-31-15
69 metanightmare22 33.4% 10675 01-31-15
70 Aitamen 33.3% 10692 01-31-15
71 dabestgamer 33.3% 10694 01-31-15
72 MiStEr_ShAoLiN 33.1% 10721 01-31-15
73 Cyan Ryan 33.1% 10727 01-31-15
74 itsPersonnal 32.1% 10888 01-31-15
75 Cybrax 31.3% 11019 01-31-15
76 Andrea Ritsu 31.1% 11054 01-31-15
77 danieldude 31.0% 11069 01-31-15
78 SilvertheAlmighty 31.0% 11072 01-31-15
79 VMU Player Banned 29.1% 11371 01-31-15
80 Staf 28.6% 11451 01-31-15
81 Omega Rafael Santos 28.5% 11459 01-31-15
82 The T 28.4% 11489 01-31-15
83 EngiNerd 28.0% 11543 01-31-15
84 lordmetalsonic 27.3% 11656 01-31-15
85 Hipertails12 26.9% 11724 01-31-15
86 welldooder64 26.6% 11765 01-31-15
87 Sondow 26.6% 11766 01-31-15
88 GreatStar 26.6% 11770 01-31-15
89 The Great Lord Mick 26.3% 11814 01-31-15
90 Mastakirby 26.2% 11830 01-31-15
91 LinksDarkArrows 26.2% 11843 01-31-15
92 Skylace 25.2% 11994 01-31-15
93 Rolken 23.7% 12237 01-31-15
94 Nimrod 22.9% 12364 01-31-15
95 Xia 22.2% 12482 01-31-15
96 Kogen Player Banned 22.0% 12507 01-31-15
97 Spinballwizard 21.9% 12526 01-31-15
98 Cutiefox 21.5% 12582 01-31-15
99 Miles9999 21.5% 12593 01-31-15
100 Don 21.4% 12598 01-31-15
101 f0rever_zer0 21.4% 12605 01-31-15
102 andres430 20.7% 12712 01-31-15
103 Cruizer 20.6% 12732 01-31-15
104 iSonicKid2K 20.4% 12762 01-31-15
105 SADXTryHard 19.9% 12843 01-31-15
106 GarnetPrincess 19.7% 12883 01-31-15
107 knuckles_sonic8 19.1% 12967 01-31-15
108 Team_Yoshi 18.5% 13077 01-31-15
109 The Knuckles Chao 18.1% 13130 01-31-15
110 FoxBoy 17.9% 13165 01-31-15
111 Termon 17.8% 13183 01-31-15
112 KinkyCadence 17.7% 13200 01-31-15
113 SonicWinDX 15.8% 13504 01-31-15
114 Sonic Singularity 15.8% 13507 01-31-15
115 Pokemonmaster888 15.8% 13509 01-31-15
116 BigAL49 14.7% 13675 01-31-15
117 SilverSonic 14.5% 13706 01-31-15
118 MPit08 14.4% 13722 01-31-15
119 Mo Player Banned 14.2% 13758 01-31-15
120 Cod4Scopes 13.5% 13873 01-31-15
121 HyperSonic64 13.5% 13878 01-31-15
122 booo95 13.4% 13890 01-31-15
123 Chawkk 13.2% 13916 01-31-15
124 SuperSonic101 13.1% 13935 01-31-15
125 Maxinfamily 12.9% 13977 01-31-15
126 Hunters13 12.8% 13978 01-31-15
127 PsyBorg 12.6% 14021 01-31-15
128 Flying Fox 12.5% 14030 01-31-15
128 Kanimayo_Jp 12.5% 14030 01-31-15
130 BrokenArthritis 12.4% 14047 01-31-15
131 LilZero 12.3% 14060 01-31-15
132 paulie9990 12.2% 14075 01-31-15
133 sonicspeed 11.8% 14141 01-31-15
134 douglas 11.7% 14166 01-31-15
135 Therio 11.6% 14185 01-31-15
136 Matt_TY 11.4% 14217 01-31-15
137 Cooljay 10.7% 14322 01-31-15
138 SeaWolf 10.6% 14335 01-31-15
139 joecoolgames 10.6% 14339 01-31-15
140 TFEC Headshot 10.1% 14425 01-31-15
141 welshmoose05 10.0% 14441 01-31-15
142 crazy1993 9.7% 14479 01-31-15
143 Mcshuggets 9.6% 14500 01-31-15
144 videogamer1014 9.4% 14530 01-31-15
145 imazor017 9.2% 14567 01-31-15
146 nuckrieg 9.2% 14569 01-31-15
147 SonicAD 9.1% 14573 01-31-15
148 niscool 9.1% 14578 01-31-15
149 SirTobbii 9.1% 14587 01-31-15
150 superjupi 8.9% 14619 01-31-15
151 Shadowthegreat 8.8% 14622 01-31-15
152 SaviourDC 8.6% 14666 01-31-15
153 iarebored 8.5% 14674 01-31-15
154 sonamyfan666 8.4% 14686 01-31-15
155 SonicKnuckles 8.3% 14707 01-31-15
155 Werey 8.3% 14707 01-31-15
157 adf 8.0% 14758 01-31-15
158 ArcticDragon 7.9% 14777 01-31-15
159 Megaman EXE565 7.8% 14784 01-31-15
160 Platformer 7.5% 14838 01-31-15
161 FocusSight64 7.4% 14857 01-31-15
162 wheatrich 7.3% 14865 01-31-15
163 timpkmn89 7.3% 14871 01-31-15
164 Swift Hobo 7.2% 14879 01-31-15
165 Rickyman48 7.1% 14904 01-31-15
166 KitsuneYamaro 6.8% 14943 01-31-15
167 Triseena 6.7% 14963 01-31-15
168 CyberShadow 6.6% 14984 01-31-15
169 slade23 6.5% 15000 01-31-15
170 dShadow 6.4% 15007 01-31-15
171 Starlight Sable 6.4% 15015 01-31-15
172 IsisDazs 6.3% 15033 01-31-15
173 BlankTH 6.1% 15054 01-31-15
174 Monkeh 5.8% 15103 01-31-15
175 Richied 5.8% 15108 01-31-15
176 DaDude 5.7% 15127 01-31-15
177 sonicd5 5.5% 15150 01-31-15
178 Zip 5.5% 15151 01-31-15
179 tal39h 5.2% 15203 01-31-15
180 Kirbymon30 5.2% 15212 01-31-15
181 Drflash55 4.9% 15260 01-31-15
181 soniccoloursunleashed 4.9% 15260 01-31-15
183 neaolas 4.7% 15285 01-31-15
184 Bass 4.7% 15287 01-31-15
185 superiorsonic 4.6% 15302 01-31-15
186 Sonicsuperstar1 4.6% 15306 01-31-15
187 UninspiredUsername 4.6% 15308 01-31-15
188 zapp 4.5% 15314 01-31-15
189 gamefreak1292 4.4% 15328 01-31-15
190 Chaos_Overlord 4.1% 15376 01-31-15
191 SonicU260 4.1% 15377 01-31-15
192 TakaRikka 4.0% 15393 01-31-15
193 Valfore 4.0% 15402 01-31-15
194 ShinigamiMachine 3.8% 15435 01-31-15
195 Regano1000 3.7% 15439 01-31-15
196 MK 3.6% 15460 01-31-15
197 Ace747 3.6% 15467 01-31-15
198 Illidan 3.2% 15519 01-31-15
199 Venick409 3.1% 15540 01-31-15
200 Sithwarrior26 3.1% 15548 01-31-15
201 Brian_pso 3.1% 15550 01-31-15
202 TheChaosEmeraIds 3.0% 15564 01-31-15
203 ingx24 2.9% 15569 01-31-15
204 SkyBon 2.9% 15578 01-31-15
205 Nickson98 2.9% 15580 01-31-15
206 Fozer 2.8% 15593 01-31-15
207 sonic29887 2.8% 15598 01-31-15
208 FSSRandomvids 2.7% 15601 01-31-15
209 Colomb_30 2.7% 15602 01-31-15
210 TheUltraBlur 2.6% 15618 01-31-15
211 1stKirbyever 2.6% 15628 01-31-15
212 Th4tN1nj4Turtl3 2.3% 15663 01-31-15
213 Cort_pso 2.3% 15669 01-31-15
214 Doom-9 2.3% 15673 01-31-15
214 ieatatsonic 2.3% 15673 01-31-15
216 Mariosonic15 2.2% 15681 01-31-15
217 SuperSonic71087 2.2% 15686 01-31-15
218 MStitomix 2.1% 15699 01-31-15
219 HermitHelmet 2.1% 15701 01-31-15
220 Artie 2.0% 15714 01-31-15
221 Got4n 2.0% 15715 01-31-15
222 Jose_15 2.0% 15724 01-31-15
223 Questionguy555 1.9% 15729 01-31-15
224 a_moustache 1.9% 15735 01-31-15
225 djmat 1.9% 15740 01-31-15
226 sonicandamy 1.7% 15762 01-31-15
227 Heroes_Hater 1.7% 15766 01-31-15
227 LancexExWx 1.7% 15766 01-31-15
229 son1cgu1tar 1.7% 15770 01-31-15
230 Paixii 1.6% 15776 01-31-15
231 BallzeH 1.6% 15790 01-31-15
232 Mankster101 1.5% 15796 01-31-15
233 BecauseWarAnvil 1.5% 15798 01-31-15
234 Jamixesa 1.5% 15801 01-31-15
235 SpiritDragon1995 1.4% 15809 01-31-15
236 Shanekilz 1.4% 15810 01-31-15
237 Crydio 1.4% 15812 01-31-15
238 ReuelBrony 1.4% 15820 01-31-15
239 stanski 1.3% 15828 01-31-15
240 Sonique Hedgehog 1.3% 15829 01-31-15
241 p0ker 1.2% 15841 01-31-15
242 Blue Infamy 1.2% 15843 01-31-15
243 Arthas 1.2% 15853 01-31-15
243 ErrortheCucco 1.2% 15853 01-31-15
245 Rikum22 1.1% 15856 01-31-15
246 sonic1001 1.1% 15864 01-31-15
246 WingedInsignia 1.1% 15864 01-31-15
248 AJSIV 1.1% 15871 01-31-15
248 syco1098 1.1% 15871 01-31-15
250 Sonic the Hedgehod16 1.0% 15872 01-31-15
251 Calfd 1.0% 15879 01-31-15
252 Mariobutch 1.0% 15881 01-31-15
253 BlackArmsShadow 0.9% 15889 01-31-15
254 themachoman202 0.9% 15894 01-31-15
255 Ben1502 0.9% 15899 01-31-15
256 Fivavoa 0.9% 15901 01-31-15
256 Greham Adelphis 0.9% 15901 01-31-15
256 MastaToken 0.9% 15901 01-31-15
256 shadowblast63 Player Banned 0.9% 15901 01-31-15
260 Mr. Jones 0.8% 15904 01-31-15
260 ptorflaxendrosis 0.8% 15904 01-31-15
262 darkstarblaze 0.8% 15905 01-31-15
263 arcfx1985 0.8% 15906 01-31-15
264 FlandreScarlet9999vr 0.8% 15910 01-31-15
264 Gvozdevik 0.8% 15910 01-31-15
264 Knuckles 0.8% 15910 01-31-15
267 KaM Mark MaK 0.8% 15918 01-31-15
268 BeeAwwb 0.7% 15921 01-31-15
269 ShadouZaHejjihoggu 0.7% 15925 01-31-15
270 Sonic62 0.7% 15931 01-31-15
271 darkersupershadic 0.7% 15934 01-31-15
271 Sogeking 0.7% 15934 01-31-15
273 Shadygamerfreak 0.6% 15938 01-31-15
274 dragondragon18 0.6% 15939 01-31-15
275 Grady219 0.6% 15940 01-31-15
275 Sarger001 0.6% 15940 01-31-15
275 SonicK100 0.6% 15940 01-31-15
278 Jawaah 0.6% 15944 01-31-15
279 Antek 0.6% 15949 01-31-15
280 SilverK 0.6% 15950 01-31-15
281 Klaus 0.6% 15951 01-31-15
282 BioShadow 0.5% 15956 01-31-15
283 SpinDashMaster 0.5% 15960 01-31-15
284 Videogamer123 0.5% 15961 01-31-15
285 Egor305 0.4% 15975 01-31-15
285 oTaiIilLsS 0.4% 15975 01-31-15
287 isaihtb11 0.4% 15976 01-31-15
288 OhNoes! 0.4% 15977 01-31-15
289 Mad Andy 0.4% 15978 01-31-15
290 zaktu40 0.4% 15979 01-31-15
291 gaara1234 0.4% 15982 01-31-15
292 gamed00d 0.4% 15983 01-31-15
293 Mister_Slick 0.3% 15993 01-31-15
294 Sonic06Fan 0.3% 15995 01-31-15
295 Rush Hero 0.3% 15996 01-31-15
296 SonicMega167 0.3% 15999 01-31-15
297 Iwannabelink 0.2% 16000 01-31-15
298 sonknuck23 0.2% 16005 01-31-15
299 gamer1245 0.2% 16010 01-31-15
300 DanielTheFalcon 0.2% 16011 01-31-15
301 Burningskull123 0.1% 16018 01-31-15
302 Sonicontherun 0.1% 16028 01-31-15
303 Lil_Dude 0.0% 16032 01-31-15
304 antiwwe 0.0% 16034 01-31-15
305 Genuine Hedgehog 0.0% 16038 01-31-15
306 Cbwade15 0.0% 16039 01-31-15
307 Tyrouble 0.0% 16041 01-31-15
308 MegabombBlade 0.0% 16048 01-31-15
308 neji_hyuuga 0.0% 16048 01-31-15
308 Over 0.0% 16048 01-31-15
308 sdj6707 Player Banned 0.0% 16048 01-31-15
308 Tran Sonic Fan Player Banned 0.0% 16048 01-31-15

This page is using the New Data Table System. [FUTURE]

Game ID: 3 | Category ID: 10
Hits: 61,981 | Hits This Month: 497 | DB Calls: 21 | Mem Usage: 5.44 MB | Time: 0.12s | Printable

The Sonic Center v3.9
Copyright 2003-2011 by The Sonic Center Team.